Time;durP1;ratioP1;P1;durP2;ratioP2;P2;SDS_P1;SDS_P2;PMS_P1;PMS_P2;Temp;Humidity;BMP_temperature;BMP_pressure;BME280_temperature;BME280_humidity;BME280_pressure;Samples;Min_cycle;Max_cycle;Signal;HPM_P1;HPM_P2
2021/12/01 00:01:55;;;;;;;12.45;2.22;;;;;;;;;;5023944;28;20128;-64
2021/12/01 00:04:21;;;;;;;9.65;2.95;;;;;;;;;;5022458;28;20523;-64
2021/12/01 00:06:47;;;;;;;21.92;2.30;;;;;;;;;;5024548;28;20545;-64
2021/12/01 00:09:13;;;;;;;12.30;3.20;;;;;;;;;;5023980;28;20025;-64
2021/12/01 00:11:39;;;;;;;13.82;2.30;;;;;;;;;;5024142;28;20044;-64
2021/12/01 00:14:05;;;;;;;14.77;2.33;;;;;;;;;;5023639;28;20168;-64
2021/12/01 00:16:31;;;;;;;21.52;2.60;;;;;;;;;;5023606;28;20284;-65
2021/12/01 00:18:58;;;;;;;14.38;2.65;;;;;;;;;;5023934;28;20132;-64
2021/12/01 00:21:25;;;;;;;24.27;2.47;;;;;;;;;;5022828;28;20033;-64
2021/12/01 00:23:51;;;;;;;12.70;2.38;;;;;;;;;;5019534;28;20029;-64
2021/12/01 00:26:17;;;;;;;22.42;2.92;;;;;;;;;;5023978;28;20031;-65
2021/12/01 00:28:43;;;;;;;24.98;2.40;;;;;;;;;;5023706;28;20029;-64
2021/12/01 00:31:09;;;;;;;18.55;2.25;;;;;;;;;;5022364;28;20724;-64
2021/12/01 00:33:35;;;;;;;16.70;2.10;;;;;;;;;;5022800;28;20033;-64
2021/12/01 00:36:01;;;;;;;11.07;2.13;;;;;;;;;;5023697;28;20044;-64
2021/12/01 00:38:28;;;;;;;17.85;2.00;;;;;;;;;;5023451;28;20742;-64
2021/12/01 00:40:55;;;;;;;16.17;2.45;;;;;;;;;;5023507;28;20103;-64
2021/12/01 00:43:23;;;;;;;17.98;2.10;;;;;;;;;;5023412;28;20034;-64
2021/12/01 00:45:51;;;;;;;15.75;1.85;;;;;;;;;;5023251;28;20033;-64
2021/12/01 00:48:18;;;;;;;17.65;1.88;;;;;;;;;;5022035;28;20166;-65
2021/12/01 00:50:44;;;;;;;9.98;2.10;;;;;;;;;;5023661;28;20044;-64
2021/12/01 00:53:11;;;;;;;14.07;2.58;;;;;;;;;;5023167;28;20079;-64
2021/12/01 00:55:37;;;;;;;19.55;2.67;;;;;;;;;;5023245;28;20075;-64
2021/12/01 00:58:03;;;;;;;12.80;1.77;;;;;;;;;;5021849;28;20036;-64
2021/12/01 01:00:29;;;;;;;9.43;1.85;;;;;;;;;;5022592;28;20040;-64
2021/12/01 01:02:58;;;;;;;17.08;2.15;;;;;;;;;;5023318;28;20036;-64
2021/12/01 01:05:24;;;;;;;14.48;2.00;;;;;;;;;;5022941;28;20025;-64
2021/12/01 01:07:50;;;;;;;15.85;1.92;;;;;;;;;;5022916;28;20033;-64
2021/12/01 01:10:28;;;;;;;16.65;1.92;;;;;;;;;;5021808;28;20144;-64
2021/12/01 01:18:24;;;;;;;21.33;2.42;;;;;;;;;;5023338;28;20022;-64
2021/12/01 01:20:49;;;;;;;11.10;2.15;;;2.60;99.90;;;;;;5023059;28;20040;-64
2021/12/01 01:23:15;;;;;;;11.90;1.92;;;;;;;;;;5022495;28;20033;-64
2021/12/01 01:25:41;;;;;;;11.27;1.63;;;;;;;;;;5023098;28;20037;-64
2021/12/01 01:28:07;;;;;;;8.10;1.23;;;;;;;;;;5022988;28;20117;-64
2021/12/01 01:30:33;;;;;;;16.23;2.58;;;;;;;;;;5022794;28;20057;-64
2021/12/01 01:32:59;;;;;;;11.63;2.03;;;;;;;;;;5024445;28;20033;-64
2021/12/01 01:35:25;;;;;;;15.27;2.67;;;;;;;;;;5025428;28;20040;-64
2021/12/01 01:37:51;;;;;;;15.07;1.65;;;;;;;;;;5025617;28;20137;-64
2021/12/01 01:40:17;;;;;;;15.70;1.98;;;;;;;;;;5026380;28;20116;-64
2021/12/01 01:42:43;;;;;;;23.17;2.47;;;;;;;;;;5026793;28;20065;-64
2021/12/01 01:45:10;;;;;;;17.58;2.03;;;;;;;;;;5026039;28;20038;-65
2021/12/01 01:47:36;;;;;;;21.10;2.58;;;;;;;;;;5026879;28;20044;-64
2021/12/01 01:52:34;;;;;;;16.02;2.15;;;;;;;;;;5032761;28;20038;-64
2021/12/01 01:55:00;;;;;;;15.32;2.05;;;;;;;;;;5025351;28;20035;-64
2021/12/01 01:57:26;;;;;;;13.38;1.50;;;;;;;;;;5026379;28;20031;-71
2021/12/01 01:59:52;;;;;;;16.30;1.80;;;;;;;;;;5026448;28;20497;-70
2021/12/01 02:02:18;;;;;;;15.07;1.77;;;;;;;;;;5026206;28;20033;-71
2021/12/01 02:04:44;;;;;;;13.07;2.47;;;;;;;;;;5025682;28;20091;-72
2021/12/01 02:07:11;;;;;;;13.70;2.03;;;;;;;;;;5026184;28;20037;-70
2021/12/01 02:09:37;;;;;;;17.58;1.85;;;;;;;;;;5026945;28;20562;-70
2021/12/01 02:12:03;;;;;;;9.05;1.60;;;;;;;;;;5026424;28;20049;-71
2021/12/01 02:14:29;;;;;;;9.57;1.67;;;;;;;;;;5025871;28;20029;-71
2021/12/01 02:16:55;;;;;;;22.20;3.05;;;;;;;;;;5026308;28;20159;-71
2021/12/01 02:19:21;;;;;;;14.98;2.15;;;;;;;;;;5025310;28;20449;-70
2021/12/01 02:21:48;;;;;;;11.70;2.00;;;;;;;;;;5024479;28;20033;-70
2021/12/01 02:24:14;;;;;;;23.55;2.55;;;;;;;;;;5025940;28;20572;-70
2021/12/01 02:26:39;;;;;;;18.15;3.08;;;3.30;99.90;;;;;;5026200;28;20108;-71
2021/12/01 02:29:05;;;;;;;15.02;1.85;;;;;;;;;;5025892;28;20132;-70
2021/12/01 02:31:36;;;;;;;17.38;2.17;;;;;;;;;;5024556;28;20042;-70
2021/12/01 02:34:02;;;;;;;17.90;2.63;;;;;;;;;;5007942;28;20532;-70
2021/12/01 02:36:28;;;;;;;18.13;2.00;;;;;;;;;;5025145;28;20579;-71
2021/12/01 02:38:54;;;;;;;16.95;2.45;;;;;;;;;;5026027;28;20047;-71
2021/12/01 02:41:20;;;;;;;22.77;2.50;;;;;;;;;;5024378;28;20056;-70
2021/12/01 02:43:47;;;;;;;19.35;2.60;;;;;;;;;;5025004;28;20061;-71
2021/12/01 02:46:13;;;;;;;10.63;1.95;;;;;;;;;;5023028;28;20037;-71
2021/12/01 02:48:42;;;;;;;11.77;2.22;;;;;;;;;;5026069;28;20029;-71
2021/12/01 02:51:08;;;;;;;22.92;2.40;;;2.90;99.90;;;;;;5025376;28;20091;-71
2021/12/01 02:53:34;;;;;;;15.13;2.25;;;;;;;;;;5025734;28;20124;-71
2021/12/01 02:56:00;;;;;;;14.65;1.83;;;3.30;99.90;;;;;;5025698;28;20474;-71
2021/12/01 02:58:26;;;;;;;12.50;1.90;;;;;;;;;;5025055;28;20033;-71
2021/12/01 03:00:52;;;;;;;26.42;3.13;;;;;;;;;;5025489;28;20033;-70
2021/12/01 03:03:18;;;;;;;18.73;2.15;;;;;;;;;;5025391;28;20036;-70
2021/12/01 03:05:44;;;;;;;16.65;2.10;;;;;;;;;;5025237;28;20033;-70
2021/12/01 03:08:10;;;;;;;17.48;2.40;;;;;;;;;;5025725;28;20029;-70
2021/12/01 03:10:36;;;;;;;11.90;2.45;;;;;;;;;;5024046;28;20416;-71
2021/12/01 03:13:02;;;;;;;13.07;1.92;;;;;;;;;;5021310;28;20044;-71
2021/12/01 03:15:28;;;;;;;16.25;2.72;;;;;;;;;;5025263;28;20040;-71
2021/12/01 03:17:54;;;;;;;16.95;2.30;;;;;;;;;;5023855;28;20140;-70
2021/12/01 03:20:22;;;;;;;18.45;2.40;;;;;;;;;;5024990;28;20663;-71
2021/12/01 03:22:48;;;;;;;20.42;1.83;;;;;;;;;;5025370;28;20030;-70
2021/12/01 03:25:14;;;;;;;18.85;2.25;;;;;;;;;;5025105;28;20121;-71
2021/12/01 03:27:40;;;;;;;31.58;3.38;;;;;;;;;;5024892;28;20041;-71
2021/12/01 03:30:06;;;;;;;12.13;2.17;;;4.10;99.90;;;;;;5023727;28;20087;-71
2021/12/01 03:32:32;;;;;;;18.13;2.15;;;;;;;;;;5023672;28;20037;-71
2021/12/01 03:34:58;;;;;;;12.50;2.17;;;;;;;;;;5024443;28;20037;-71
2021/12/01 03:37:24;;;;;;;13.75;2.00;;;;;;;;;;5024417;28;20061;-70
2021/12/01 03:39:50;;;;;;;14.40;1.83;;;;;;;;;;5024994;28;20038;-71
2021/12/01 03:42:16;;;;;;;14.77;1.88;;;;;;;;;;5024423;28;20037;-71
2021/12/01 03:44:42;;;;;;;18.73;2.97;;;;;;;;;;5024617;28;20053;-71
2021/12/01 03:47:08;;;;;;;16.20;1.95;;;;;;;;;;5024790;28;20037;-71
2021/12/01 03:49:34;;;;;;;13.93;2.15;;;;;;;;;;5024387;28;20033;-71
2021/12/01 03:52:00;;;;;;;17.10;2.17;;;;;;;;;;5024744;28;20036;-70
2021/12/01 03:54:26;;;;;;;7.65;1.73;;;;;;;;;;5024489;28;20045;-71
2021/12/01 03:56:52;;;;;;;13.25;1.90;;;;;;;;;;5024190;28;20037;-71
2021/12/01 03:59:18;;;;;;;17.55;2.22;;;;;;;;;;5024673;28;20075;-71
2021/12/01 04:01:45;;;;;;;13.75;2.25;;;;;;;;;;5024487;28;20038;-71
2021/12/01 04:04:11;;;;;;;10.60;2.45;;;;;;;;;;5022641;28;20029;-71
2021/12/01 04:06:37;;;;;;;19.60;2.63;;;;;;;;;;5024412;28;20107;-70
2021/12/01 04:09:03;;;;;;;13.18;2.05;;;;;;;;;;5024442;28;20036;-71
2021/12/01 04:11:29;;;;;;;14.10;1.98;;;;;;;;;;5023868;28;20056;-71
2021/12/01 04:13:56;;;;;;;12.85;2.20;;;;;;;;;;5020387;28;20029;-70
2021/12/01 04:16:22;;;;;;;12.18;1.95;;;;;;;;;;5024344;28;20116;-71
2021/12/01 04:18:48;;;;;;;19.58;1.67;;;4.20;99.90;;;;;;5024062;28;20040;-71
2021/12/01 04:21:14;;;;;;;11.75;1.77;;;;;;;;;;5024209;28;20034;-71
2021/12/01 04:23:40;;;;;;;10.20;1.45;;;;;;;;;;5023951;28;20553;-71
2021/12/01 04:26:11;;;;;;;10.70;1.50;;;;;;;;;;5023757;28;20064;-71
2021/12/01 04:28:37;;;;;;;16.38;1.73;;;;;;;;;;5023834;28;20037;-71
2021/12/01 04:31:03;;;;;;;14.48;2.08;;;;;;;;;;5024062;28;20464;-71
2021/12/01 04:33:29;;;;;;;12.98;1.75;;;;;;;;;;5023521;28;20029;-71
2021/12/01 04:35:56;;;;;;;9.32;1.75;;;;;;;;;;5024079;28;20033;-71
2021/12/01 04:38:22;;;;;;;14.85;2.55;;;;;;;;;;5023024;28;20069;-71
2021/12/01 04:40:48;;;;;;;15.20;2.72;;;;;;;;;;5023590;28;20504;-71
2021/12/01 04:43:14;;;;;;;16.60;2.75;;;;;;;;;;5023295;28;20862;-71
2021/12/01 04:45:42;;;;;;;23.63;2.70;;;;;;;;;;5023734;28;20168;-71
2021/12/01 04:48:08;;;;;;;14.95;2.15;;;3.80;99.90;;;;;;5023753;28;20033;-71
2021/12/01 04:50:34;;;;;;;13.15;2.30;;;;;;;;;;5021962;28;20037;-71
2021/12/01 04:53:00;;;;;;;13.82;2.45;;;;;;;;;;5023580;28;20047;-71
2021/12/01 04:55:26;;;;;;;11.77;2.95;;;;;;;;;;5023505;28;20482;-71
2021/12/01 04:57:52;;;;;;;8.70;2.55;;;;;;;;;;5023494;28;20041;-71
2021/12/01 05:00:18;;;;;;;13.43;2.00;;;;;;;;;;5022204;28;20783;-71
2021/12/01 05:02:44;;;;;;;16.75;2.75;;;;;;;;;;5023545;28;20489;-71
2021/12/01 05:05:10;;;;;;;19.38;2.63;;;;;;;;;;5022904;28;20045;-71
2021/12/01 05:07:36;;;;;;;10.20;2.25;;;;;;;;;;5023008;28;20513;-71
2021/12/01 05:10:02;;;;;;;18.45;2.90;;;;;;;;;;5023558;28;20041;-71
2021/12/01 05:12:29;;;;;;;17.80;2.70;;;;;;;;;;5023140;28;20845;-72
2021/12/01 05:14:55;;;;;;;10.40;2.28;;;;;;;;;;5023283;28;20120;-72
2021/12/01 05:17:21;;;;;;;9.23;2.08;;;;;;;;;;5021886;28;20121;-72
2021/12/01 05:19:47;;;;;;;10.77;2.38;;;;;;;;;;5023065;28;20037;-72
2021/12/01 05:22:13;;;;;;;13.70;2.72;;;;;;;;;;5023174;28;20029;-72
2021/12/01 05:24:39;;;;;;;13.45;2.40;;;;;;;;;;5023220;28;20811;-72
2021/12/01 05:27:05;;;;;;;17.38;2.92;;;;;;;;;;5022666;28;20113;-73
2021/12/01 05:29:31;;;;;;;11.88;3.20;;;;;;;;;;5023200;28;20037;-73
2021/12/01 05:31:57;;;;;;;10.60;2.67;;;3.40;99.90;;;;;;5023267;28;20045;-72
2021/12/01 05:34:23;;;;;;;7.97;2.50;;;;;;;;;;5020494;28;20881;-73
2021/12/01 05:36:49;;;;;;;13.02;2.58;;;;;;;;;;5023465;28;20037;-72
2021/12/01 05:39:16;;;;;;;8.02;2.58;;;;;;;;;;5023098;28;20044;-73
2021/12/01 05:41:42;;;;;;;9.52;2.35;;;;;;;;;;5022959;28;20034;-72
2021/12/01 05:44:08;;;;;;;6.53;2.55;;;;;;;;;;5022959;28;20033;-72
2021/12/01 05:46:34;;;;;;;13.88;2.85;;;;;;;;;;5023316;28;20083;-72
2021/12/01 05:49:00;;;;;;;4.85;2.60;;;;;;;;;;5022625;28;20026;-72
2021/12/01 05:51:27;;;;;;;11.13;3.15;;;;;;;;;;5022884;28;20073;-72
2021/12/01 05:53:53;;;;;;;8.93;3.47;;;;;;;;;;5022662;28;20130;-72
2021/12/01 05:56:19;;;;;;;10.02;3.00;;;;;;;;;;5022417;28;20052;-72
2021/12/01 05:58:45;;;;;;;15.82;4.05;;;;;;;;;;5021417;28;20037;-72
2021/12/01 06:01:11;;;;;;;8.93;3.10;;;;;;;;;;5023163;28;20073;-72
2021/12/01 06:03:39;;;;;;;8.68;3.20;;;;;;;;;;5022108;28;20029;-72
2021/12/01 06:06:05;;;;;;;12.80;3.00;;;;;;;;;;5019687;28;20033;-72
2021/12/01 06:08:31;;;;;;;6.75;3.30;;;;;;;;;;5023476;28;20025;-73
2021/12/01 06:10:57;;;;;;;9.25;3.28;;;;;;;;;;5022942;28;20041;-74
2021/12/01 06:13:24;;;;;;;10.60;3.45;;;4.00;99.90;;;;;;5022916;28;20038;-73
2021/12/01 06:15:49;;;;;;;10.23;3.42;;;4.40;99.90;;;;;;5022975;28;20076;-72
2021/12/01 06:18:15;;;;;;;9.05;3.58;;;;;;;;;;5022295;28;20045;-73
2021/12/01 06:20:41;;;;;;;11.07;3.45;;;;;;;;;;5023122;28;20033;-72
2021/12/01 06:23:07;;;;;;;9.80;4.05;;;;;;;;;;5025832;28;20144;-73
2021/12/01 06:25:34;;;;;;;9.38;4.20;;;;;;;;;;5025860;28;20079;-72
2021/12/01 06:28:00;;;;;;;12.25;3.90;;;;;;;;;;5026215;28;20040;-73
2021/12/01 06:30:26;;;;;;;9.32;4.30;;;;;;;;;;5026042;28;20103;-72
2021/12/01 06:32:52;;;;;;;8.35;3.88;;;;;;;;;;5026026;28;20037;-73
2021/12/01 06:35:18;;;;;;;7.53;4.22;;;;;;;;;;5025522;28;20033;-73
2021/12/01 06:37:44;;;;;;;9.27;4.28;;;;;;;;;;5026103;28;20037;-72
2021/12/01 06:40:10;;;;;;;8.35;4.55;;;;;;;;;;5025695;28;20030;-73
2021/12/01 06:42:36;;;;;;;9.48;5.00;;;;;;;;;;5025869;28;20041;-73
2021/12/01 06:45:02;;;;;;;12.48;4.78;;;;;;;;;;5025982;28;20037;-73
2021/12/01 06:47:28;;;;;;;11.43;5.15;;;;;;;;;;5025659;28;20033;-72
2021/12/01 06:49:54;;;;;;;10.90;5.13;;;;;;;;;;5025734;28;20036;-72
2021/12/01 06:52:20;;;;;;;14.65;5.25;;;;;;;;;;5026164;28;20037;-72
2021/12/01 06:54:47;;;;;;;9.27;5.45;;;;;;;;;;5025210;28;20041;-72
2021/12/01 06:57:13;;;;;;;11.68;5.90;;;;;;;;;;5026206;28;20033;-72
2021/12/01 06:59:39;;;;;;;16.27;6.60;;;;;;;;;;5025804;28;20244;-71
2021/12/01 07:02:05;;;;;;;11.32;5.72;;;;;;;;;;5025273;28;20033;-72
2021/12/01 07:04:31;;;;;;;11.10;6.03;;;;;;;;;;5025121;28;20079;-72
2021/12/01 07:06:58;;;;;;;11.65;6.47;;;;;;;;;;5021764;28;20451;-72
2021/12/01 07:09:24;;;;;;;10.07;5.43;;;;;;;;;;5025122;28;20133;-72
2021/12/01 07:11:51;;;;;;;9.30;5.40;;;;;;;;;;5025625;28;20056;-72
2021/12/01 07:14:17;;;;;;;10.13;5.40;;;;;;;;;;5025076;28;20716;-72
2021/12/01 07:16:43;;;;;;;8.73;5.28;;;;;;;;;;5023694;28;20564;-72
2021/12/01 07:19:09;;;;;;;6.95;4.07;;;;;;;;;;5025268;28;20626;-71
2021/12/01 07:21:35;;;;;;;7.63;4.80;;;5.80;99.90;;;;;;5025432;28;20044;-71
2021/12/01 07:24:01;;;;;;;8.70;4.95;;;;;;;;;;5025087;28;20056;-71
2021/12/01 07:26:27;;;;;;;9.95;4.90;;;;;;;;;;5025212;28;20126;-71
2021/12/01 07:28:53;;;;;;;6.68;4.03;;;;;;;;;;5024954;28;20029;-71
2021/12/01 07:31:19;;;;;;;11.10;3.95;;;;;;;;;;5024315;28;20398;-71
2021/12/01 07:33:45;;;;;;;7.75;4.38;;;;;;;;;;5024722;28;20805;-72
2021/12/01 07:36:11;;;;;;;6.38;3.85;;;;;;;;;;5022702;28;20041;-71
2021/12/01 07:38:37;;;;;;;7.53;4.07;;;;;;;;;;5024790;28;20037;-71
2021/12/01 07:41:03;;;;;;;6.85;3.72;;;;;;;;;;5024926;28;20637;-72
2021/12/01 07:43:29;;;;;;;6.57;4.07;;;;;;;;;;5024832;28;20121;-71
2021/12/01 07:45:55;;;;;;;7.10;3.92;;;;;;;;;;5024694;28;20072;-71
2021/12/01 07:48:21;;;;;;;8.05;4.05;;;;;;;;;;5024157;28;20036;-71
2021/12/01 07:50:48;;;;;;;4.82;3.63;;;;;;;;;;5024750;28;20038;-72
2021/12/01 07:53:14;;;;;;;6.85;3.60;;;;;;;;;;5024514;28;20083;-71
2021/12/01 07:55:40;;;;;;;5.13;3.53;;;;;;;;;;5024301;28;20029;-73
2021/12/01 07:58:06;;;;;;;6.45;3.28;;;;;;;;;;5024424;28;20802;-71
2021/12/01 08:00:32;;;;;;;3.78;2.95;;;;;;;;;;5024376;28;20046;-71
2021/12/01 08:02:58;;;;;;;4.75;3.13;;;;;;;;;;5024092;28;20035;-72
2021/12/01 08:05:24;;;;;;;3.88;2.97;;;;;;;;;;5024719;28;20075;-71
2021/12/01 08:07:51;;;;;;;8.20;3.40;;;;;;;;;;5023910;28;20034;-71
2021/12/01 08:10:17;;;;;;;7.53;4.18;;;;;;;;;;5031677;28;20477;-69
2021/12/01 08:12:43;;;;;;;4.65;3.45;;;;;;;;;;5024249;28;20038;-69
2021/12/01 08:15:09;;;;;;;10.23;4.63;;;;;;;;;;5024016;28;20811;-69
2021/12/01 08:17:35;;;;;;;7.20;3.95;;;;;;;;;;5023978;28;20041;-69
2021/12/01 08:20:01;;;;;;;6.97;4.05;;;;;;;;;;5024269;28;20025;-69
2021/12/01 08:22:27;;;;;;;5.47;3.38;;;;;;;;;;5024004;28;20115;-69
2021/12/01 08:24:59;;;;;;;4.95;3.33;;;;;;;;;;5023593;28;20048;-70
2021/12/01 08:27:25;;;;;;;5.75;3.30;;;;;;;;;;5023960;28;20037;-69
2021/12/01 08:29:51;;;;;;;8.35;3.80;;;;;;;;;;5023262;28;20140;-69
2021/12/01 08:32:17;;;;;;;4.22;2.90;;;;;;;;;;5022987;28;20033;-69
2021/12/01 08:34:49;;;;;;;8.27;3.40;;;;;;;;;;5023690;28;20033;-70
2021/12/01 08:37:16;;;;;;;4.53;3.15;;;;;;;;;;5024019;28;20088;-69
2021/12/01 08:39:43;;;;;;;5.10;2.80;;;;;;;;;;5022890;28;20040;-69
2021/12/01 08:42:10;;;;;;;8.45;4.43;;;;;;;;;;5022854;28;20831;-69
2021/12/01 08:44:36;;;;;;;6.10;2.80;;;;;;;;;;5021024;28;20038;-70
2021/12/01 08:47:02;;;;;;;7.45;3.22;;;6.40;99.90;;;;;;5007651;28;20056;-69
2021/12/01 08:49:28;;;;;;;2.88;2.15;;;;;;;;;;5023318;28;20057;-69
2021/12/01 08:51:54;;;;;;;3.13;2.13;;;;;;;;;;5022425;28;20033;-69
2021/12/01 08:54:20;;;;;;;3.67;2.25;;;7.00;99.90;;;;;;5022469;28;20033;-70
2021/12/01 08:56:46;;;;;;;4.10;2.50;;;;;;;;;;5023044;28;20035;-70
2021/12/01 08:59:12;;;;;;;3.17;2.25;;;;;;;;;;5022780;28;20193;-69
2021/12/01 09:01:39;;;;;;;4.35;2.28;;;;;;;;;;5022775;28;20412;-69
2021/12/01 09:04:05;;;;;;;4.95;2.47;;;;;;;;;;5022762;28;20104;-69
2021/12/01 09:06:31;;;;;;;2.70;1.85;;;;;;;;;;5023422;28;20052;-70
2021/12/01 09:08:57;;;;;;;5.78;3.47;;;;;;;;;;5005026;28;20033;-69
2021/12/01 09:11:23;;;;;;;6.43;2.17;;;;;;;;;;5022749;28;20087;-69
2021/12/01 09:13:49;;;;;;;3.28;2.10;;;;;;;;;;5022103;28;20087;-69
2021/12/01 09:16:15;;;;;;;3.97;2.30;;;;;;;;;;5020328;28;20033;-69
2021/12/01 09:18:42;;;;;;;2.03;1.58;;;;;;;;;;5022655;28;20145;-70
2021/12/01 10:27:28;;;;;;;4.03;2.30;;;;;;;;;;5090142;27;20110;-68
2021/12/01 10:29:54;;;;;;;8.23;3.60;;;;;;;;;;5078042;28;20040;-69
2021/12/01 10:32:19;;;;;;;3.00;2.17;;;6.50;99.90;;;;;;5093247;28;20032;-69
2021/12/01 10:34:47;;;;;;;6.13;2.47;;;;;;;;;;5062236;28;20040;-69
2021/12/01 10:37:13;;;;;;;6.25;2.58;;;;;;;;;;5072827;28;20041;-69
2021/12/01 10:39:39;;;;;;;2.72;1.70;;;;;;;;;;5074847;28;20033;-70
2021/12/01 10:42:06;;;;;;;5.60;2.00;;;;;;;;;;5071844;28;20127;-69
2021/12/01 10:44:32;;;;;;;10.65;3.20;;;;;;;;;;5082084;28;20028;-69
2021/12/01 10:46:58;;;;;;;3.88;1.92;;;;;;;;;;5080343;28;20032;-69
2021/12/01 10:49:24;;;;;;;4.80;2.45;;;;;;;;;;5070916;28;20035;-69
2021/12/01 10:51:50;;;;;;;4.10;2.47;;;;;;;;;;5066304;28;20554;-69
2021/12/01 10:54:16;;;;;;;3.03;1.75;;;;;;;;;;5076315;28;20115;-69
2021/12/01 10:56:42;;;;;;;2.38;1.75;;;;;;;;;;5076081;28;20037;-69
2021/12/01 10:59:08;;;;;;;2.53;1.88;;;;;;;;;;5080628;28;20119;-70
2021/12/01 11:01:34;;;;;;;4.95;2.70;;;;;;;;;;5074439;28;20489;-69
2021/12/01 11:04:00;;;;;;;5.07;1.63;;;;;;;;;;5076271;28;20024;-69
2021/12/01 11:06:27;;;;;;;3.05;1.88;;;;;;;;;;5079401;28;20024;-69
2021/12/01 11:08:57;;;;;;;8.35;3.63;;;;;;;;;;5070035;28;20029;-69
2021/12/01 11:11:23;;;;;;;5.68;2.20;;;7.10;99.90;;;;;;5068837;28;20111;-69
2021/12/01 11:13:49;;;;;;;2.40;1.90;;;;;;;;;;5083185;28;20439;-69
2021/12/01 11:16:15;;;;;;;2.45;1.80;;;;;;;;;;5076807;28;20032;-69
2021/12/01 11:18:41;;;;;;;5.32;2.42;;;;;;;;;;5074147;28;20032;-69
2021/12/01 11:21:07;;;;;;;4.40;2.00;;;;;;;;;;5087135;28;20115;-69
2021/12/01 11:23:36;;;;;;;2.50;1.63;;;7.40;99.90;;;;;;5077727;28;20024;-69
2021/12/01 11:26:07;;;;;;;3.13;1.92;;;;;;;;;;5072509;28;20059;-70
2021/12/01 11:28:33;;;;;;;2.03;1.60;;;;;;;;;;5077224;28;20028;-70
2021/12/01 11:30:59;;;;;;;5.70;2.20;;;;;;;;;;5076649;28;20560;-69
2021/12/01 11:33:25;;;;;;;6.90;2.40;;;;;;;;;;5076734;28;20028;-69
2021/12/01 11:35:51;;;;;;;3.40;1.95;;;;;;;;;;5074769;28;20060;-69
2021/12/01 11:38:17;;;;;;;6.88;2.33;;;;;;;;;;5070790;28;20080;-69
2021/12/01 11:40:43;;;;;;;2.63;1.73;;;;;;;;;;5065243;28;20043;-69
2021/12/01 11:43:10;;;;;;;4.10;2.28;;;;;;;;;;5065600;28;20052;-69
2021/12/01 11:45:36;;;;;;;3.15;1.70;;;;;;;;;;5056068;28;20032;-69
2021/12/01 11:48:02;;;;;;;5.18;2.30;;;7.40;99.90;;;;;;5066238;28;20053;-69
2021/12/01 11:50:31;;;;;;;4.35;1.70;;;;;;;;;;5052020;28;20148;-69
2021/12/01 11:52:57;;;;;;;2.67;1.58;;;;;;;;;;5058157;28;20132;-69
2021/12/01 11:55:23;;;;;;;2.15;1.40;;;;;;;;;;5067087;28;20044;-69
2021/12/01 11:57:49;;;;;;;2.45;1.73;;;;;;;;;;5067270;28;20106;-70
2021/12/01 12:00:17;;;;;;;3.70;1.80;;;;;;;;;;5065621;28;20527;-69
2021/12/01 12:02:42;;;;;;;2.88;1.50;;;7.40;99.90;;;;;;5050373;28;20139;-69
2021/12/01 12:05:08;;;;;;;1.90;1.30;;;;;;;;;;5058680;28;20131;-69
2021/12/01 12:07:36;;;;;;;3.40;1.40;;;;;;;;;;5064454;28;20043;-69
2021/12/01 12:10:02;;;;;;;5.57;2.00;;;;;;;;;;5069049;28;20155;-69
2021/12/01 12:12:29;;;;;;;3.85;1.52;;;;;;;;;;5074669;28;20028;-69
2021/12/01 12:14:55;;;;;;;3.70;1.50;;;;;;;;;;5061621;28;20032;-69
2021/12/01 12:17:21;;;;;;;6.40;2.00;;;;;;;;;;5069145;28;20037;-69
2021/12/01 12:19:48;;;;;;;0.90;0.80;;;;;;;;;;5061973;28;20031;-69
2021/12/01 12:22:14;;;;;;;3.45;1.25;;;;;;;;;;5061735;28;20133;-69
2021/12/01 12:24:40;;;;;;;5.13;1.40;;;;;;;;;;5066426;28;20059;-69
2021/12/01 12:27:08;;;;;;;5.30;1.40;;;;;;;;;;5057166;28;20489;-69
2021/12/01 12:29:34;;;;;;;6.20;1.67;;;;;;;;;;5067184;28;21211;-69
2021/12/01 12:32:00;;;;;;;2.42;1.25;;;;;;;;;;5054417;28;20024;-70
2021/12/01 12:34:26;;;;;;;2.80;1.38;;;;;;;;;;5064023;28;20032;-69
2021/12/01 12:36:54;;;;;;;2.28;1.20;;;;;;;;;;5065349;28;20060;-68
2021/12/01 12:39:21;;;;;;;2.25;1.10;;;;;;;;;;5063116;28;20041;-69
2021/12/01 12:41:47;;;;;;;2.33;1.00;;;;;;;;;;5064538;28;20469;-69
2021/12/01 12:44:13;;;;;;;2.55;1.40;;;8.00;99.90;;;;;;5067507;28;20581;-69
2021/12/01 12:46:39;;;;;;;1.58;1.20;;;;;;;;;;5063710;28;20098;-69
2021/12/01 12:49:05;;;;;;;2.55;1.50;;;;;;;;;;5064901;28;20032;-69
2021/12/01 12:51:31;;;;;;;6.03;1.45;;;;;;;;;;5066161;28;20032;-69
2021/12/01 12:53:57;;;;;;;1.40;1.08;;;;;;;;;;5058155;28;20039;-69
2021/12/01 12:56:24;;;;;;;2.15;1.08;;;;;;;;;;5055108;28;20494;-70
2021/12/01 12:58:50;;;;;;;2.47;1.30;;;;;;;;;;5057100;28;20754;-69
2021/12/01 13:01:16;;;;;;;2.80;1.00;;;;;;;;;;5049627;28;20032;-69
2021/12/01 13:03:42;;;;;;;2.58;1.40;;;;;;;;;;5057907;28;20027;-69
2021/12/01 13:06:08;;;;;;;2.13;1.15;;;;;;;;;;5058667;28;20048;-69
2021/12/01 13:08:34;;;;;;;3.50;0.98;;;;;;;;;;5060705;28;20031;-69
2021/12/01 13:11:00;;;;;;;2.55;0.90;;;;;;;;;;5068517;28;20024;-69
2021/12/01 13:13:26;;;;;;;4.85;1.33;;;;;;;;;;5056730;28;20024;-69
2021/12/01 13:15:52;;;;;;;2.60;1.40;;;;;;;;;;5060553;28;20033;-69
2021/12/01 13:18:18;;;;;;;2.35;1.10;;;;;;;;;;5065126;28;20175;-69
2021/12/01 13:20:44;;;;;;;2.10;1.10;;;;;;;;;;5059325;28;20029;-69
2021/12/01 13:23:10;;;;;;;1.38;0.80;;;;;;;;;;5067078;28;20033;-70
2021/12/01 13:25:38;;;;;;;2.30;1.30;;;7.80;99.90;;;;;;5053460;28;20090;-69
2021/12/01 13:28:04;;;;;;;2.75;1.30;;;;;;;;;;5059629;28;20027;-69
2021/12/01 13:30:30;;;;;;;3.65;1.20;;;;;;;;;;5055595;28;20040;-69
2021/12/01 13:32:56;;;;;;;1.55;0.77;;;;;;;;;;5062492;28;20021;-69
2021/12/01 13:35:22;;;;;;;1.27;0.70;;;;;;;;;;5064505;28;20076;-69
2021/12/01 13:37:48;;;;;;;3.10;0.95;;;;;;;;;;5056605;28;20067;-69
2021/12/01 13:40:14;;;;;;;1.85;0.90;;;;;;;;;;5057440;28;20052;-69
2021/12/01 13:42:40;;;;;;;1.92;0.80;;;;;;;;;;5054199;28;20370;-70
2021/12/01 13:45:06;;;;;;;1.52;0.85;;;;;;;;;;5068090;28;20025;-69
2021/12/01 13:47:34;;;;;;;1.40;0.80;;;;;;;;;;5067929;28;20042;-69
2021/12/01 13:50:00;;;;;;;1.48;0.75;;;8.50;99.90;;;;;;5063530;28;20105;-69
2021/12/01 13:52:26;;;;;;;2.25;0.80;;;;;;;;;;5055443;28;20024;-70
2021/12/01 13:54:52;;;;;;;8.60;1.15;;;;;;;;;;5055692;28;20089;-69
2021/12/01 13:57:18;;;;;;;1.50;0.70;;;;;;;;;;5057372;28;20411;-69
2021/12/01 13:59:44;;;;;;;1.60;0.90;;;;;;;;;;5054603;28;20487;-70
2021/12/01 14:02:10;;;;;;;3.60;1.20;;;;;;;;;;5064773;28;20115;-70
2021/12/01 14:04:37;;;;;;;1.85;0.98;;;;;;;;;;5058012;28;20055;-69
2021/12/01 14:07:03;;;;;;;1.42;0.75;;;;;;;;;;5052065;28;20527;-70
2021/12/01 14:09:29;;;;;;;1.27;0.70;;;;;;;;;;5066449;28;20028;-70
2021/12/01 14:11:55;;;;;;;1.55;0.80;;;;;;;;;;5055557;28;20035;-71
2021/12/01 14:14:21;;;;;;;1.27;0.70;;;;;;;;;;5066786;28;20043;-70
2021/12/01 14:16:47;;;;;;;2.50;0.82;;;8.60;99.90;;;;;;5046972;28;20021;-69
2021/12/01 14:19:13;;;;;;;20.52;8.40;;;;;;;;;;5062109;28;20032;-70
2021/12/01 14:21:39;;;;;;;13.68;2.35;;;;;;;;;;5063306;28;20055;-70
2021/12/01 14:24:05;;;;;;;8.82;1.73;;;;;;;;;;5058711;28;20033;-70
2021/12/01 14:26:31;;;;;;;5.00;0.90;;;;;;;;;;5056058;28;20533;-69
2021/12/01 14:28:57;;;;;;;19.65;3.65;;;;;;;;;;5059814;28;20024;-70
2021/12/01 14:31:23;;;;;;;12.35;2.30;;;8.80;99.90;;;;;;5059855;28;20024;-70
2021/12/01 14:33:49;;;;;;;4.93;1.52;;;;;;;;;;5058540;28;20021;-70
2021/12/01 14:36:15;;;;;;;1.92;0.93;;;;;;;;;;5051192;28;20021;-70
2021/12/01 14:38:41;;;;;;;2.83;1.00;;;;;;;;;;5058416;28;20450;-70
2021/12/01 14:41:07;;;;;;;2.13;1.00;;;;;;;;;;5049617;28;20110;-70
2021/12/01 14:43:33;;;;;;;3.00;1.17;;;8.50;99.90;;;;;;5061678;28;20562;-71
2021/12/01 14:45:59;;;;;;;0.88;0.63;;;;;;;;;;5060671;28;20032;-69
2021/12/01 14:48:25;;;;;;;13.05;5.80;;;;;;;;;;5059130;28;20049;-70
2021/12/01 14:50:54;;;;;;;2.65;0.90;;;;;;;;;;5057183;28;20646;-69
2021/12/01 14:53:20;;;;;;;2.35;1.40;;;7.80;99.90;;;;;;5057642;28;20175;-70
2021/12/01 14:55:47;;;;;;;1.40;0.70;;;;;;;;;;5060502;28;20472;-70
2021/12/01 14:58:13;;;;;;;2.33;0.98;;;;;;;;;;5058602;28;20043;-70
2021/12/01 15:00:39;;;;;;;4.35;1.20;;;;;;;;;;5058787;28;20020;-70
2021/12/01 15:03:05;;;;;;;4.10;1.95;;;;;;;;;;5062204;28;20036;-70
2021/12/01 15:05:31;;;;;;;2.22;0.85;;;;;;;;;;5050821;28;20099;-70
2021/12/01 15:08:04;;;;;;;1.23;0.70;;;;;;;;;;5057033;28;20044;-70
2021/12/01 15:10:30;;;;;;;0.40;0.40;;;;;;;;;;5062827;28;20852;-70
2021/12/01 15:12:56;;;;;;;0.85;0.75;;;8.40;99.90;;;;;;5069938;28;20107;-69
2021/12/01 15:15:22;;;;;;;1.73;0.50;;;;;;;;;;5069971;28;20033;-70
2021/12/01 15:17:48;;;;;;;0.50;0.50;;;;;;;;;;5054419;28;20025;-70
2021/12/01 15:20:13;;;;;;;0.88;0.57;;;;;;;;;;5068710;28;20055;-69
2021/12/01 15:22:39;;;;;;;0.50;0.50;;;;;;;;;;5056123;28;20036;-70
2021/12/01 15:25:05;;;;;;;0.60;0.50;;;;;;;;;;5063419;28;20776;-70
2021/12/01 15:27:31;;;;;;;1.63;0.57;;;;;;;;;;5067278;28;20063;-69
2021/12/01 15:29:57;;;;;;;1.55;0.60;;;;;;;;;;5064947;28;20082;-69
2021/12/01 15:32:23;;;;;;;0.60;0.60;;;8.70;99.90;;;;;;5056059;28;20051;-69
2021/12/01 15:34:49;;;;;;;3.83;1.35;;;;;;;;;;5052083;28;20510;-70
2021/12/01 15:37:15;;;;;;;3.17;1.17;;;;;;;;;;5056532;28;20653;-70